createdAt,value
2022-11-16T00:01:25.840Z,8.92
2022-11-16T00:04:28.863Z,8.81
2022-11-16T00:07:32.596Z,8.81
2022-11-16T00:10:35.490Z,8.85
2022-11-16T00:13:39.337Z,8.89
2022-11-16T00:16:45.303Z,9.01
2022-11-16T00:19:48.965Z,8.99
2022-11-16T00:22:51.910Z,8.91
2022-11-16T00:25:54.479Z,8.92
2022-11-16T00:28:57.992Z,8.84
2022-11-16T00:32:00.981Z,8.97
2022-11-16T00:35:04.225Z,8.93
2022-11-16T00:38:08.040Z,8.95
2022-11-16T00:41:11.733Z,9.01
2022-11-16T00:44:16.103Z,8.91
2022-11-16T00:47:19.013Z,8.92
2022-11-16T00:50:22.961Z,8.86
2022-11-16T00:53:26.213Z,8.98
2022-11-16T00:56:30.119Z,8.78
2022-11-16T00:59:32.944Z,8.95
2022-11-16T01:02:36.867Z,9.01
2022-11-16T01:05:40.543Z,8.90
2022-11-16T01:08:44.555Z,8.89
2022-11-16T01:12:06.851Z,8.92
2022-11-16T01:15:11.054Z,8.91
2022-11-16T01:18:13.882Z,9.00
2022-11-16T01:21:16.996Z,8.89
2022-11-16T01:24:23.401Z,8.88
2022-11-16T01:27:26.183Z,8.86
2022-11-16T01:30:29.662Z,8.87
2022-11-16T01:33:40.222Z,8.85
2022-11-16T01:36:48.420Z,8.84
2022-11-16T01:39:52.569Z,9.00
2022-11-16T01:42:58.495Z,8.83
2022-11-16T01:46:01.393Z,8.88
2022-11-16T01:49:15.549Z,8.86
2022-11-16T01:52:22.985Z,8.92
2022-11-16T01:55:27.972Z,9.04
2022-11-16T01:58:42.917Z,8.97
2022-11-16T02:01:57.621Z,8.97
2022-11-16T02:05:01.849Z,9.06
2022-11-16T02:09:08.474Z,8.97
2022-11-16T02:12:44.322Z,8.92
2022-11-16T02:15:53.848Z,8.73
2022-11-16T02:19:27.588Z,8.69
2022-11-16T02:22:45.247Z,8.69
2022-11-16T02:26:15.656Z,8.55
2022-11-16T02:29:35.093Z,8.38
2022-11-16T02:32:41.197Z,8.60
2022-11-16T02:35:47.753Z,8.54
2022-11-16T02:38:55.766Z,8.48
2022-11-16T02:42:00.833Z,8.53
2022-11-16T02:45:07.478Z,8.57
2022-11-16T02:48:16.058Z,8.60
2022-11-16T02:51:19.791Z,8.56
2022-11-16T02:54:24.743Z,8.61
2022-11-16T02:57:33.085Z,8.58
2022-11-16T03:00:43.686Z,8.40
2022-11-16T03:04:04.102Z,8.61
2022-11-16T03:07:09.695Z,8.63
2022-11-16T03:10:33.502Z,8.54
2022-11-16T03:13:41.573Z,8.39
2022-11-16T03:16:49.829Z,8.63
2022-11-16T03:20:03.177Z,8.69
2022-11-16T03:23:11.258Z,8.75
2022-11-16T03:26:20.206Z,8.74
2022-11-16T03:29:41.205Z,8.75
2022-11-16T03:32:55.721Z,8.73
2022-11-16T03:36:35.019Z,8.61
2022-11-16T03:39:39.988Z,8.50
2022-11-16T03:42:44.096Z,8.50
2022-11-16T03:45:47.693Z,8.50
2022-11-16T03:48:58.399Z,8.59
2022-11-16T03:52:04.630Z,8.49
2022-11-16T03:55:10.571Z,8.59
2022-11-16T03:58:14.856Z,8.52
2022-11-16T04:01:18.684Z,8.42
2022-11-16T04:04:41.426Z,8.62
2022-11-16T04:08:04.119Z,8.59
2022-11-16T04:11:32.605Z,8.52
2022-11-16T04:14:54.102Z,8.56
2022-11-16T04:18:17.400Z,8.61
2022-11-16T04:21:43.797Z,8.59
2022-11-16T04:24:52.080Z,8.58
2022-11-16T04:28:14.066Z,8.63
2022-11-16T04:31:39.724Z,8.57
2022-11-16T04:35:05.476Z,8.57
2022-11-16T04:38:15.465Z,8.42
2022-11-16T04:41:38.612Z,8.56
2022-11-16T04:45:04.858Z,8.52
2022-11-16T04:48:14.362Z,8.44
2022-11-16T04:51:17.440Z,8.65
2022-11-16T04:54:20.438Z,8.49
2022-11-16T04:57:25.304Z,8.61
2022-11-16T05:00:30.513Z,8.53
2022-11-16T05:03:33.245Z,8.57
2022-11-16T05:06:37.075Z,8.67
2022-11-16T05:09:47.112Z,8.62
2022-11-16T05:12:50.524Z,8.52
2022-11-16T05:15:53.368Z,8.55
2022-11-16T05:19:14.864Z,8.69
2022-11-16T05:22:22.358Z,8.52
2022-11-16T05:25:26.376Z,8.43
2022-11-16T05:28:29.062Z,8.55
2022-11-16T05:31:35.149Z,8.57
2022-11-16T05:34:41.835Z,8.60
2022-11-16T05:37:46.024Z,8.80
2022-11-16T05:40:58.670Z,8.48
2022-11-16T05:44:01.338Z,8.56
2022-11-16T05:47:04.409Z,8.14
2022-11-16T05:50:08.620Z,8.52
2022-11-16T05:53:16.627Z,8.31
2022-11-16T05:56:19.295Z,8.10
2022-11-16T05:59:25.692Z,7.94
2022-11-16T06:02:33.421Z,7.95
2022-11-16T06:05:40.530Z,7.78
2022-11-16T06:08:44.862Z,8.04
2022-11-16T06:11:53.340Z,7.89
2022-11-16T06:14:56.623Z,7.88
2022-11-16T06:17:59.576Z,8.07
2022-11-16T06:21:01.954Z,7.89
2022-11-16T06:24:09.158Z,7.87
2022-11-16T06:27:12.023Z,7.69
2022-11-16T06:30:15.746Z,7.83
2022-11-16T06:33:18.945Z,7.92
2022-11-16T06:36:24.189Z,7.86
2022-11-16T06:39:29.181Z,7.86
2022-11-16T06:42:32.274Z,7.74
2022-11-16T06:45:36.524Z,7.78
2022-11-16T06:48:40.915Z,7.97
2022-11-16T06:51:47.286Z,7.96
2022-11-16T06:54:50.456Z,7.91
2022-11-16T06:57:53.681Z,7.95
2022-11-16T07:00:59.970Z,7.65
2022-11-16T07:04:02.808Z,7.28
2022-11-16T07:07:09.131Z,7.38
2022-11-16T07:10:14.680Z,7.41
2022-11-16T07:13:20.393Z,7.18
2022-11-16T07:16:23.522Z,7.48
2022-11-16T07:19:34.054Z,7.44
2022-11-16T07:22:38.843Z,7.46
2022-11-16T07:25:42.237Z,7.55
2022-11-16T07:28:48.586Z,7.46
2022-11-16T07:32:03.490Z,7.49
2022-11-16T07:35:30.330Z,7.39
2022-11-16T07:38:33.706Z,7.46
2022-11-16T07:41:42.701Z,7.57
2022-11-16T07:44:55.210Z,7.35
2022-11-16T07:48:00.232Z,7.39
2022-11-16T07:51:23.420Z,7.31
2022-11-16T07:54:43.629Z,7.55
2022-11-16T07:57:51.968Z,7.70
2022-11-16T08:00:56.365Z,7.81
2022-11-16T08:04:04.837Z,7.60
2022-11-16T08:07:09.450Z,7.55
2022-11-16T08:10:19.145Z,7.57
2022-11-16T08:13:22.264Z,7.34
2022-11-16T08:16:25.945Z,7.35
2022-11-16T08:19:37.519Z,7.26
2022-11-16T08:22:44.355Z,7.36
2022-11-16T08:25:47.309Z,7.37
2022-11-16T08:28:52.199Z,7.51
2022-11-16T08:32:04.180Z,7.38
2022-11-16T08:35:08.952Z,7.48
2022-11-16T08:38:12.148Z,7.76
2022-11-16T08:41:17.378Z,7.78
2022-11-16T08:44:21.584Z,7.54
2022-11-16T08:47:31.432Z,7.24
2022-11-16T08:50:55.463Z,7.62
2022-11-16T08:53:59.789Z,7.94
2022-11-16T08:57:03.646Z,7.76
2022-11-16T09:00:09.541Z,7.42
2022-11-16T09:03:12.377Z,7.88
2022-11-16T09:06:15.249Z,7.44
2022-11-16T09:09:19.739Z,7.59
2022-11-16T09:12:22.879Z,7.48
2022-11-16T09:15:25.529Z,7.29
2022-11-16T09:18:29.189Z,7.43
2022-11-16T09:21:36.224Z,7.70
2022-11-16T09:24:39.121Z,7.57
2022-11-16T09:27:41.792Z,7.35
2022-11-16T09:30:45.538Z,7.53
2022-11-16T09:33:48.635Z,7.47
2022-11-16T09:36:51.889Z,7.33
2022-11-16T09:39:55.119Z,7.30
2022-11-16T09:43:34.793Z,7.28
2022-11-16T09:46:48.417Z,7.22
2022-11-16T09:50:02.732Z,7.49
2022-11-16T09:53:33.305Z,7.19
2022-11-16T09:56:39.900Z,7.24
2022-11-16T09:59:50.639Z,7.02
2022-11-16T10:03:14.031Z,6.85
2022-11-16T10:06:53.220Z,7.03
2022-11-16T10:09:56.665Z,7.00
2022-11-16T10:12:59.120Z,7.05
2022-11-16T10:16:02.956Z,7.22
2022-11-16T10:19:17.400Z,7.25
2022-11-16T10:22:22.721Z,7.69
2022-11-16T10:25:30.176Z,7.32
2022-11-16T10:28:54.298Z,6.98
2022-11-16T10:32:21.326Z,6.90
2022-11-16T10:35:33.317Z,6.84
2022-11-16T10:38:36.066Z,7.13
2022-11-16T10:41:42.956Z,7.00
2022-11-16T10:44:56.498Z,7.10
2022-11-16T10:48:08.562Z,7.09
2022-11-16T10:51:11.598Z,6.91
2022-11-16T10:54:18.606Z,7.02
2022-11-16T10:57:24.401Z,6.83
2022-11-16T11:00:34.772Z,6.69
2022-11-16T11:03:37.587Z,6.70
2022-11-16T11:06:41.023Z,6.53
2022-11-16T11:09:43.713Z,6.70
2022-11-16T11:13:08.481Z,6.51
2022-11-16T11:16:17.407Z,6.67
2022-11-16T11:19:29.954Z,6.68
2022-11-16T11:23:00.985Z,6.43
2022-11-16T11:26:03.776Z,6.81
2022-11-16T11:29:33.942Z,6.95
2022-11-16T11:32:40.761Z,6.56
2022-11-16T11:35:43.465Z,6.55
2022-11-16T11:39:05.237Z,6.68
2022-11-16T11:42:22.063Z,6.57
2022-11-16T11:45:53.324Z,6.66
2022-11-16T11:49:01.935Z,6.69
2022-11-16T11:52:12.715Z,6.62
2022-11-16T11:55:18.829Z,6.78
2022-11-16T11:58:24.387Z,6.50
2022-11-16T12:01:30.016Z,6.80
2022-11-16T12:04:55.985Z,6.67
2022-11-16T12:08:24.092Z,6.31
2022-11-16T12:11:56.897Z,6.36
2022-11-16T12:15:08.467Z,6.38
2022-11-16T12:18:29.629Z,6.47
2022-11-16T12:21:54.328Z,6.50
2022-11-16T12:25:27.757Z,6.54
2022-11-16T12:28:49.842Z,6.46
2022-11-16T12:32:06.829Z,6.40
2022-11-16T12:35:46.894Z,6.50
2022-11-16T12:39:11.239Z,6.43
2022-11-16T12:42:16.403Z,6.13
2022-11-16T12:45:44.770Z,6.37
2022-11-16T12:48:53.114Z,6.23
2022-11-16T12:52:03.234Z,6.02
2022-11-16T12:55:25.909Z,6.07
2022-11-16T12:58:40.768Z,5.79
2022-11-16T13:02:00.782Z,5.97
2022-11-16T13:05:05.559Z,5.75
2022-11-16T13:08:42.037Z,5.95
2022-11-16T13:11:56.032Z,5.93
2022-11-16T13:15:01.710Z,5.78
2022-11-16T13:18:07.533Z,5.86
2022-11-16T13:21:22.231Z,6.26
2022-11-16T13:24:27.885Z,6.10
2022-11-16T13:27:30.404Z,5.97
2022-11-16T13:31:02.684Z,5.98
2022-11-16T13:34:15.827Z,5.67
2022-11-16T13:37:38.664Z,5.62
2022-11-16T13:40:41.512Z,5.58
2022-11-16T13:43:49.551Z,5.56
2022-11-16T13:47:07.733Z,5.51
2022-11-16T13:50:19.705Z,5.55
2022-11-16T13:56:51.522Z,5.72
2022-11-16T14:00:17.406Z,5.71
2022-11-16T14:03:20.794Z,5.59
2022-11-16T14:06:23.665Z,5.51
2022-11-16T14:09:47.597Z,5.57
2022-11-16T14:12:54.929Z,5.34
2022-11-16T14:16:17.083Z,5.26
2022-11-16T14:19:56.358Z,5.18
2022-11-16T14:23:07.669Z,4.86
2022-11-16T14:26:41.750Z,4.92
2022-11-16T14:30:12.712Z,4.86
2022-11-16T14:33:32.447Z,4.83
2022-11-16T14:36:43.652Z,4.69
2022-11-16T14:39:46.628Z,4.74
2022-11-16T14:43:23.037Z,4.73
2022-11-16T14:46:35.119Z,4.68
2022-11-16T14:49:38.467Z,4.49
2022-11-16T14:52:44.885Z,4.29
2022-11-16T14:55:47.732Z,4.73
2022-11-16T14:58:57.042Z,4.48
2022-11-16T15:02:07.307Z,4.31
2022-11-16T15:05:17.269Z,4.43
2022-11-16T15:08:25.067Z,4.52
2022-11-16T15:12:06.928Z,4.55
2022-11-16T15:15:16.184Z,4.45
2022-11-16T15:18:21.063Z,4.71
2022-11-16T15:21:25.315Z,4.46
2022-11-16T15:24:31.480Z,4.38
2022-11-16T15:27:37.828Z,4.27
2022-11-16T15:30:40.853Z,4.48
2022-11-16T15:33:45.288Z,4.38
2022-11-16T15:36:49.309Z,4.45
2022-11-16T15:39:53.587Z,4.57
2022-11-16T15:43:01.632Z,4.49
2022-11-16T15:46:04.600Z,4.59
2022-11-16T15:49:31.955Z,4.51
2022-11-16T15:52:46.211Z,4.55
2022-11-16T15:55:50.706Z,4.62
2022-11-16T15:58:55.207Z,4.65
2022-11-16T16:01:58.371Z,4.35
2022-11-16T16:05:00.834Z,4.54
2022-11-16T16:08:03.927Z,4.47
2022-11-16T16:11:09.440Z,4.27
2022-11-16T16:14:23.431Z,4.02
2022-11-16T16:17:27.827Z,4.07
2022-11-16T16:20:32.449Z,4.35
2022-11-16T16:23:45.861Z,4.32
2022-11-16T16:26:48.557Z,4.49
2022-11-16T16:29:57.199Z,4.26
2022-11-16T16:32:59.719Z,4.32
2022-11-16T16:36:02.587Z,4.41
2022-11-16T16:39:04.990Z,4.50
2022-11-16T16:42:12.817Z,4.51
2022-11-16T16:45:39.999Z,4.50
2022-11-16T16:48:44.785Z,4.62
2022-11-16T16:51:47.309Z,4.33
2022-11-16T16:54:50.278Z,4.32
2022-11-16T16:57:56.658Z,4.51
2022-11-16T17:01:01.482Z,4.48
2022-11-16T17:04:04.957Z,4.64
2022-11-16T17:07:08.266Z,4.33
2022-11-16T17:10:10.668Z,4.62
2022-11-16T17:13:12.972Z,4.54
2022-11-16T17:16:16.287Z,4.53
2022-11-16T17:19:19.000Z,4.57
2022-11-16T17:22:21.816Z,4.37
2022-11-16T17:25:24.314Z,4.43
2022-11-16T17:28:26.865Z,4.49
2022-11-16T17:31:29.375Z,4.68
2022-11-16T17:34:32.555Z,4.60
2022-11-16T17:37:35.223Z,4.71
2022-11-16T17:40:37.641Z,4.71
2022-11-16T17:43:40.853Z,4.93
2022-11-16T17:46:44.492Z,5.04
2022-11-16T17:49:47.209Z,5.02
2022-11-16T17:52:49.512Z,4.96
2022-11-16T17:55:53.938Z,4.92
2022-11-16T17:59:01.725Z,5.11
2022-11-16T18:02:03.997Z,5.21
2022-11-16T18:05:06.659Z,5.17
2022-11-16T18:08:09.485Z,5.08
2022-11-16T18:11:16.097Z,5.08
2022-11-16T18:14:21.278Z,5.19
2022-11-16T18:17:24.352Z,5.20
2022-11-16T18:20:30.034Z,5.07
2022-11-16T18:23:37.492Z,5.12
2022-11-16T18:26:40.780Z,4.84
2022-11-16T18:29:43.183Z,4.91
2022-11-16T18:32:45.765Z,5.13
2022-11-16T18:35:48.492Z,5.17
2022-11-16T18:38:52.571Z,5.15
2022-11-16T18:41:57.831Z,5.00
2022-11-16T18:45:04.511Z,5.28
2022-11-16T18:48:07.383Z,5.06
2022-11-16T18:51:11.989Z,4.98
2022-11-16T18:54:14.738Z,5.06
2022-11-16T18:57:17.387Z,5.09
2022-11-16T19:00:20.117Z,5.05
2022-11-16T19:03:22.681Z,5.14
2022-11-16T19:06:25.401Z,5.10
2022-11-16T19:09:27.988Z,4.97
2022-11-16T19:12:30.651Z,5.02
2022-11-16T19:15:34.259Z,4.88
2022-11-16T19:18:37.555Z,5.04
2022-11-16T19:21:42.491Z,4.90
2022-11-16T19:24:45.673Z,4.84
2022-11-16T19:27:48.403Z,4.64
2022-11-16T19:30:52.239Z,4.47
2022-11-16T19:34:05.517Z,4.40
2022-11-16T19:37:08.856Z,3.99
2022-11-16T19:40:12.600Z,4.47
2022-11-16T19:43:16.038Z,4.44
2022-11-16T19:46:19.121Z,4.43
2022-11-16T19:49:22.533Z,4.58
2022-11-16T19:52:25.699Z,4.73
2022-11-16T19:55:32.057Z,4.62
2022-11-16T19:58:38.784Z,4.53
2022-11-16T20:01:41.418Z,4.50
2022-11-16T20:04:44.555Z,4.59
2022-11-16T20:07:49.591Z,4.53
2022-11-16T20:10:51.942Z,4.37
2022-11-16T20:13:56.127Z,4.25
2022-11-16T20:16:59.083Z,4.40
2022-11-16T20:20:01.633Z,4.47
2022-11-16T20:23:03.939Z,4.43
2022-11-16T20:26:08.284Z,4.40
2022-11-16T20:29:14.654Z,4.48
2022-11-16T20:32:18.164Z,4.34
2022-11-16T20:35:20.455Z,4.26
2022-11-16T20:38:22.756Z,4.33
2022-11-16T20:41:27.552Z,4.12
2022-11-16T20:44:31.455Z,4.13
2022-11-16T20:47:35.257Z,3.90
2022-11-16T20:50:37.849Z,4.10
2022-11-16T20:53:41.028Z,4.15
2022-11-16T20:56:44.671Z,4.12
2022-11-16T20:59:47.333Z,4.27
2022-11-16T21:02:51.157Z,4.33
2022-11-16T21:05:56.902Z,4.39
2022-11-16T21:09:00.048Z,4.35
2022-11-16T21:12:21.133Z,4.47
2022-11-16T21:15:24.548Z,4.50
2022-11-16T21:18:30.681Z,4.56
2022-11-16T21:21:34.813Z,4.44
2022-11-16T21:24:37.567Z,4.40
2022-11-16T21:27:40.389Z,4.57
2022-11-16T21:30:43.034Z,4.50
2022-11-16T21:33:46.285Z,4.47
2022-11-16T21:36:49.871Z,4.39
2022-11-16T21:39:52.322Z,4.66
2022-11-16T21:42:54.864Z,4.73
2022-11-16T21:46:05.673Z,4.78
2022-11-16T21:49:08.533Z,4.62
2022-11-16T21:52:11.008Z,4.61
2022-11-16T21:55:13.496Z,4.72
2022-11-16T21:58:15.782Z,4.77
2022-11-16T22:01:18.396Z,4.77
2022-11-16T22:04:39.716Z,4.60
2022-11-16T22:07:42.989Z,4.67
2022-11-16T22:10:51.194Z,4.93
2022-11-16T22:13:53.924Z,4.83
2022-11-16T22:16:57.707Z,4.86
2022-11-16T22:20:00.662Z,4.96
2022-11-16T22:23:05.733Z,4.84
2022-11-16T22:26:13.861Z,4.87
2022-11-16T22:29:17.371Z,4.65
2022-11-16T22:32:21.302Z,4.75
2022-11-16T22:35:24.320Z,4.51
2022-11-16T22:38:27.823Z,4.74
2022-11-16T22:41:32.300Z,4.82
2022-11-16T22:44:35.293Z,4.58
2022-11-16T22:47:39.406Z,4.82
2022-11-16T22:50:42.607Z,5.03
2022-11-16T22:53:45.480Z,4.99
2022-11-16T22:56:48.967Z,4.87
2022-11-16T22:59:51.597Z,4.83
2022-11-16T23:02:55.910Z,5.11
2022-11-16T23:05:59.267Z,5.11
2022-11-16T23:09:02.014Z,5.00
2022-11-16T23:12:24.363Z,4.96
2022-11-16T23:15:49.065Z,4.88
2022-11-16T23:18:51.941Z,4.66
2022-11-16T23:22:13.725Z,4.83
2022-11-16T23:25:34.896Z,4.89
2022-11-16T23:28:37.727Z,4.93
2022-11-16T23:31:40.694Z,4.91
2022-11-16T23:34:43.370Z,4.97
2022-11-16T23:37:55.364Z,4.94
2022-11-16T23:40:58.885Z,4.76
2022-11-16T23:44:05.596Z,4.74
2022-11-16T23:47:08.748Z,4.70
2022-11-16T23:50:11.706Z,4.70
2022-11-16T23:53:14.769Z,4.65
2022-11-16T23:56:19.206Z,4.67
2022-11-16T23:59:22.051Z,4.57
